Time;durP1;ratioP1;P1;durP2;ratioP2;P2;SDS_P1;SDS_P2;PMS_P1;PMS_P2;Temp;Humidity;BMP_temperature;BMP_pressure;BME280_temperature;BME280_humidity;BME280_pressure;Samples;Min_cycle;Max_cycle;Signal;HPM_P1;HPM_P2
2021/01/02 00:00:00;;;;;;;;;;;;;;;-4.67;31.40;102594.41;4987758;28;19914;-82
2021/01/02 00:02:46;;;;;;;;;;;;;;;-5.18;31.50;102598.63;5022028;28;19922;-82
2021/01/02 00:05:16;;;;;;;;;;;;;;;-5.36;31.70;102600.69;4989735;28;19964;-82
2021/01/02 00:07:58;;;;;;;;;;;;;;;-5.18;31.51;102605.88;5005664;28;19921;-83
2021/01/02 00:10:29;;;;;;;;;;;;;;;-5.51;32.26;102599.84;4988357;28;20000;-82
2021/01/02 00:13:21;;;;;;;;;;;;;;;-5.41;32.06;102600.97;4987281;28;19918;-82
2021/01/02 00:16:13;;;;;;;;;;;;;;;-5.41;32.32;102603.69;5016158;28;20299;-82
2021/01/02 00:19:07;;;;;;;;;;;;;;;-5.34;32.26;102606.00;4970544;28;19918;-81
2021/01/02 00:21:47;;;;;;;;;;;;;;;-5.63;31.63;102618.53;4985722;28;19914;-82
2021/01/02 00:24:30;;;;;;;;;;;;;;;-5.68;31.82;102623.38;4988866;28;19922;-82
2021/01/02 00:27:19;;;;;;;;;;;;;;;-5.84;32.28;102623.47;5018622;28;19918;-82
2021/01/02 00:29:54;;;;;;;;;;;;;;;-5.84;32.54;102628.84;4982868;28;19918;-82
2021/01/02 00:32:40;;;;;;;;;;;;;;;-5.66;32.40;102644.84;4987576;28;19914;-82
2021/01/02 00:35:06;;;;;;;;;;;;;;;-5.98;32.28;102651.31;5002138;28;19914;-82
2021/01/02 00:37:39;;;;;;;;;;;;;;;-6.12;33.52;102654.00;5017254;28;19948;-82
2021/01/02 00:40:10;;;;;;;;;;;;;;;-5.85;32.61;102664.03;4986743;28;19914;-82
2021/01/02 00:42:41;;;;;;;;;;;;;;;-6.23;33.17;102660.91;4986473;28;19925;-81
2021/01/02 00:45:09;;;;;;;;;;;;;;;-6.02;32.96;102660.56;5017340;28;19914;-82
2021/01/02 00:47:37;;;;;;;;;;;;;;;-5.79;33.30;102660.94;4987718;28;19914;-82
2021/01/02 00:50:06;;;;;;;;;;;;;;;-6.12;33.57;102664.78;4986377;28;19910;-82
2021/01/02 00:52:49;;;;;;;;;;;;;;;-6.00;33.70;102658.59;5018339;28;20368;-82
2021/01/02 00:55:33;;;;;;;;;;;;;;;-6.03;33.78;102661.53;5019270;28;19921;-82
2021/01/02 00:58:18;;;;;;;;;;;;;;;-5.74;33.58;102672.34;4987750;28;19925;-82
2021/01/02 01:00:44;;;;;;;;;;;;;;;-5.66;33.34;102671.84;4998603;28;19921;-82
2021/01/02 01:03:36;;;;;;;;;;;;;;;-5.57;33.12;102682.09;4984641;28;19914;-81
2021/01/02 01:06:05;;;;;;;;;;;;;;;-5.78;33.56;102684.25;5018786;28;19914;-82
2021/01/02 01:08:33;;;;;;;;;;;;;;;-5.92;33.96;102677.91;4985643;28;19918;-81
2021/01/02 01:11:02;;;;;;;;;;;;;;;-5.60;33.79;102681.41;4986566;28;19987;-83
2021/01/02 01:13:28;;;;;;;;;;;;;;;-5.50;33.52;102688.84;5016266;28;20291;-81
2021/01/02 01:15:56;;;;;;;;;;;;;;;-5.43;33.03;102683.03;4985758;28;19914;-82
2021/01/02 01:18:40;;;;;;;;;;;;;;;-5.40;33.31;102691.81;5001462;28;19960;-83
2021/01/02 01:21:09;;;;;;;;;;;;;;;-6.00;33.53;102566.03;5000977;28;20334;-82
2021/01/02 01:23:55;;;;;;;;;;;;;;;-4.78;32.94;102694.22;5017865;28;19926;-84
2021/01/02 01:26:24;;;;;;;;;;;;;;;-4.41;32.20;102686.38;5004502;28;19964;-83
2021/01/02 01:28:55;;;;;;;;;;;;;;;-4.49;32.71;102694.16;5017943;28;19941;-82
2021/01/02 01:31:22;;;;;;;;;;;;;;;-4.66;33.83;102704.25;4988704;28;19961;-83
2021/01/02 01:33:52;;;;;;;;;;;;;;;-4.39;33.47;102692.56;4988305;28;19941;-83
2021/01/02 01:36:20;;;;;;;;;;;;;;;-4.73;34.23;102700.22;5019861;28;19968;-84
2021/01/02 01:38:54;;;;;;;;;;;;;;;-4.72;34.22;102696.53;5005549;28;20386;-83
2021/01/02 01:41:35;;;;;;;;;;;;;;;-4.43;33.75;102683.81;4988259;28;20275;-83
2021/01/02 01:44:19;;;;;;;;;;;;;;;-4.61;33.87;102701.22;4985804;28;19937;-82
2021/01/02 01:46:49;;;;;;;;;;;;;;;-5.01;34.64;102705.59;4997789;28;19914;-82
2021/01/02 01:49:21;;;;;;;;;;;;;;;-4.87;34.45;102707.38;5020784;28;19953;-84
2021/01/02 01:51:52;;;;;;;;;;;;;;;-4.86;33.64;102717.25;5022600;28;20313;-84
2021/01/02 01:54:30;;;;;;;;;;;;;;;-5.34;34.94;102716.69;5019356;28;19989;-83
2021/01/02 01:57:02;;;;;;;;;;;;;;;-5.27;35.05;102709.94;5021039;28;19914;-82
2021/01/02 01:59:48;;;;;;;;;;;;;;;-4.81;34.67;102704.28;4991285;28;20384;-83
2021/01/02 02:02:17;;;;;;;;;;;;;;;-4.56;33.68;102715.31;5021484;28;20012;-83
2021/01/02 02:05:00;;;;;;;;;;;;;;;-4.18;33.49;102706.47;5019477;28;19922;-84
2021/01/02 02:07:53;;;;;;;;;;;;;;;-3.90;33.51;102703.72;5020066;28;19921;-84
2021/01/02 02:10:32;;;;;;;;;;;;;;;-4.36;33.83;102700.47;4985569;28;19918;-83
2021/01/02 02:13:01;;;;;;;;;;;;;;;-4.04;33.66;102689.28;4988402;28;19918;-83
2021/01/02 02:15:29;;;;;;;;;;;;;;;-4.31;34.68;102700.16;4988395;28;19917;-84
2021/01/02 02:18:06;;;;;;;;;;;;;;;-4.39;34.83;102708.81;4988013;28;19921;-82
2021/01/02 02:20:34;;;;;;;;;;;;;;;-4.63;35.77;102709.47;4988057;28;20016;-83
2021/01/02 02:23:06;;;;;;;;;;;;;;;-4.31;35.28;102692.03;4986105;28;19921;-83
2021/01/02 02:25:55;;;;;;;;;;;;;;;-4.69;36.12;102685.53;4985688;28;19925;-83
2021/01/02 02:28:27;;;;;;;;;;;;;;;-4.71;36.69;102695.56;4966415;28;19918;-82
2021/01/02 02:30:55;;;;;;;;;;;;;;;-4.55;36.52;102684.63;4984215;28;20014;-83
2021/01/02 02:33:25;;;;;;;;;;;;;;;-4.44;36.62;102692.88;4998651;28;19924;-82
2021/01/02 02:35:54;;;;;;;;;;;;;;;-4.58;36.88;102695.66;4998951;28;19918;-83
2021/01/02 02:38:21;;;;;;;;;;;;;;;-4.26;36.44;102690.75;5016758;28;19913;-83
2021/01/02 02:40:47;;;;;;;;;;;;;;;-3.98;36.18;102688.03;4987194;28;20009;-85
2021/01/02 02:43:15;;;;;;;;;;;;;;;-4.03;36.13;102691.03;4987810;28;19921;-82
2021/01/02 02:45:41;;;;;;;;;;;;;;;-4.00;36.60;102696.25;5016525;28;19921;-86
2021/01/02 02:48:14;;;;;;;;;;;;;;;-4.21;37.17;102701.28;4982890;28;19906;-85
2021/01/02 02:50:42;;;;;;;;;;;;;;;-4.09;37.05;102690.59;4985963;28;20425;-84
2021/01/02 02:53:09;;;;;;;;;;;;;;;-4.38;37.66;102688.91;5017348;28;19921;-84
2021/01/02 02:55:38;;;;;;;;;;;;;;;-4.07;37.34;102689.50;5018338;28;19914;-84
2021/01/02 02:58:05;;;;;;;;;;;;;;;-3.80;37.49;102682.28;4986746;28;19918;-83
2021/01/02 03:00:33;;;;;;;;;;;;;;;-4.05;38.36;102682.16;5021316;28;20012;-83
2021/01/02 03:03:01;;;;;;;;;;;;;;;-4.37;38.93;102687.94;4995043;28;20021;-83
2021/01/02 03:05:30;;;;;;;;;;;;;;;-3.93;38.64;102690.41;4996481;28;19918;-83
2021/01/02 03:08:00;;;;;;;;;;;;;;;-4.42;39.47;102690.06;5027910;28;19961;-83
2021/01/02 03:10:30;;;;;;;;;;;;;;;-3.91;38.66;102688.47;5025701;28;19914;-82
2021/01/02 03:12:56;;;;;;;;;;;;;;;-3.92;39.00;102676.75;4995445;28;19976;-82
2021/01/02 03:15:23;;;;;;;;;;;;;;;-3.96;39.27;102679.78;4992571;28;19914;-81
2021/01/02 03:17:52;;;;;;;;;;;;;;;-3.95;39.21;102676.09;4994466;28;19934;-82
2021/01/02 03:20:21;;;;;;;;;;;;;;;-4.23;40.31;102676.16;4992125;28;19925;-82
2021/01/02 03:22:54;;;;;;;;;;;;;;;-4.04;40.27;102678.47;4994841;28;19909;-83
2021/01/02 03:25:21;;;;;;;;;;;;;;;-4.22;40.92;102679.75;4994821;28;19987;-83
2021/01/02 03:27:54;;;;;;;;;;;;;;;-4.23;41.44;102678.00;4993241;28;19924;-84
2021/01/02 03:30:33;;;;;;;;;;;;;;;-3.77;40.99;102674.81;4995071;28;19918;-86
2021/01/02 03:33:00;;;;;;;;;;;;;;;-3.62;40.59;102666.59;5005507;28;19957;-83
2021/01/02 03:35:33;;;;;;;;;;;;;;;-3.90;41.99;102660.41;4992558;28;20436;-83
2021/01/02 03:38:03;;;;;;;;;;;;;;;-3.93;42.40;102655.22;4992169;28;19902;-82
2021/01/02 03:40:37;;;;;;;;;;;;;;;-3.95;42.40;102654.44;4994910;28;19914;-82
2021/01/02 03:43:04;;;;;;;;;;;;;;;-3.64;42.04;102660.44;5024711;28;20275;-82
2021/01/02 03:45:33;;;;;;;;;;;;;;;-3.96;40.83;102677.06;4992977;28;19914;-82
2021/01/02 03:47:59;;;;;;;;;;;;;;;-4.00;42.07;102663.78;5010912;28;19914;-82
2021/01/02 03:50:27;;;;;;;;;;;;;;;-3.82;41.97;102651.78;4996527;28;19925;-82
2021/01/02 03:52:54;;;;;;;;;;;;;;;-3.49;41.28;102656.63;4991146;28;19917;-83
2021/01/02 03:55:21;;;;;;;;;;;;;;;-3.25;40.44;102652.25;5008455;28;19914;-83
2021/01/02 03:57:47;;;;;;;;;;;;;;;-3.17;40.64;102639.88;4995502;28;20369;-83
2021/01/02 04:00:18;;;;;;;;;;;;;;;-3.87;41.12;102649.38;5006036;28;19925;-83
2021/01/02 04:02:46;;;;;;;;;;;;;;;-3.89;41.40;102637.78;5006352;28;19910;-83
2021/01/02 04:05:14;;;;;;;;;;;;;;;-3.67;39.69;102647.97;5008327;28;19914;-82
2021/01/02 04:07:44;;;;;;;;;;;;;;;-3.74;40.38;102647.53;4995234;28;19977;-83
2021/01/02 04:10:12;;;;;;;;;;;;;;;-3.42;40.01;102642.63;4993666;28;19938;-83
2021/01/02 04:12:42;;;;;;;;;;;;;;;-3.42;40.50;102645.34;4989920;28;19953;-84
2021/01/02 04:15:10;;;;;;;;;;;;;;;-3.85;41.73;102631.19;5022482;28;20264;-83
2021/01/02 04:17:36;;;;;;;;;;;;;;;-3.72;42.71;102640.19;4991940;28;20385;-82
2021/01/02 04:20:04;;;;;;;;;;;;;;;-4.10;43.69;102613.94;4990772;28;19945;-83
2021/01/02 04:22:32;;;;;;;;;;;;;;;-3.83;43.03;102617.53;5024766;28;19977;-82
2021/01/02 04:25:00;;;;;;;;;;;;;;;-3.63;42.22;102619.69;4989767;28;19925;-82
2021/01/02 04:27:27;;;;;;;;;;;;;;;-3.50;41.60;102616.97;4989502;28;19960;-82
2021/01/02 04:29:56;;;;;;;;;;;;;;;-3.63;41.27;102619.69;4992061;28;19914;-83
2021/01/02 04:32:26;;;;;;;;;;;;;;;-3.57;40.94;102630.09;5022782;28;19953;-82
2021/01/02 04:34:53;;;;;;;;;;;;;;;-3.54;40.66;102630.84;5023190;28;19986;-83
2021/01/02 04:37:27;;;;;;;;;;;;;;;-3.50;41.29;102616.97;5023282;28;19925;-84
2021/01/02 04:39:54;;;;;;;;;;;;;;;-3.78;43.39;102640.63;4993537;28;19918;-84
2021/01/02 04:42:25;;;;;;;;;;;;;;;-3.85;43.90;102628.50;5027240;28;19914;-82
2021/01/02 04:44:52;;;;;;;;;;;;;;;-3.42;43.59;102612.84;5024710;28;19918;-84
2021/01/02 04:47:19;;;;;;;;;;;;;;;-3.27;42.64;102614.41;4994320;28;19922;-83
2021/01/02 04:49:47;;;;;;;;;;;;;;;-3.09;43.11;102608.66;4992907;28;19914;-84
2021/01/02 04:52:20;;;;;;;;;;;;;;;-3.05;43.02;102620.97;4994387;28;19921;-85
2021/01/02 04:54:51;;;;;;;;;;;;;;;-3.04;42.83;102606.44;4992288;28;19917;-83
2021/01/02 04:57:22;;;;;;;;;;;;;;;-2.97;42.31;102615.84;4993289;28;19914;-82
2021/01/02 04:59:58;;;;;;;;;;;;;;;-3.39;43.86;102616.19;4991991;28;19910;-82
2021/01/02 05:02:27;;;;;;;;;;;;;;;-2.92;43.02;102610.97;4993056;28;19982;-83
2021/01/02 05:04:53;;;;;;;;;;;;;;;-3.79;43.48;102497.25;4993273;28;19930;-83
2021/01/02 05:07:23;;;;;;;;;;;;;;;-3.32;43.95;102613.91;4993628;28;19920;-85
2021/01/02 05:09:52;;;;;;;;;;;;;;;-3.30;42.66;102612.84;5025492;28;19937;-81
2021/01/02 05:12:25;;;;;;;;;;;;;;;-3.79;43.73;102605.53;5008623;28;19914;-82
2021/01/02 05:15:05;;;;;;;;;;;;;;;-3.71;44.18;102604.00;4993412;28;20536;-82
2021/01/02 05:17:36;;;;;;;;;;;;;;;-3.73;44.95;102611.34;5022487;28;19981;-83
2021/01/02 05:20:12;;;;;;;;;;;;;;;-3.67;44.54;102615.50;5023314;28;19929;-82
2021/01/02 05:22:41;;;;;;;;;;;;;;;-3.32;43.24;102605.78;4989168;28;19918;-83
2021/01/02 05:25:21;;;;;;;;;;;;;;;-3.12;41.06;102614.28;4992825;28;20477;-84
2021/01/02 05:27:57;;;;;;;;;;;;;;;-3.67;43.01;102622.72;4989988;28;19918;-83
2021/01/02 05:30:34;;;;;;;;;;;;;;;-3.59;43.27;102617.63;5005933;28;19949;-84
2021/01/02 05:33:05;;;;;;;;;;;;;;;-3.53;43.38;102633.44;4989660;28;19936;-83
2021/01/02 05:35:34;;;;;;;;;;;;;;;-3.53;43.47;102616.31;5022511;28;19918;-82
2021/01/02 05:38:17;;;;;;;;;;;;;;;-3.68;43.80;102627.31;5024409;28;19898;-82
2021/01/02 05:40:46;;;;;;;;;;;;;;;-3.54;43.67;102622.72;4991141;28;19922;-86
2021/01/02 05:43:14;;;;;;;;;;;;;;;-3.26;42.55;102618.88;5006369;28;19921;-86
2021/01/02 05:45:40;;;;;;;;;;;;;;;-3.54;43.53;102631.72;5006717;28;19920;-83
2021/01/02 05:48:16;;;;;;;;;;;;;;;-3.79;45.12;102606.41;4992905;28;19914;-82
2021/01/02 05:50:51;;;;;;;;;;;;;;;-3.56;44.76;102617.44;4990462;28;19920;-84
2021/01/02 05:53:19;;;;;;;;;;;;;;;-3.62;43.04;102615.16;4988412;28;19918;-85
2021/01/02 05:55:46;;;;;;;;;;;;;;;-3.59;43.27;102606.81;5007236;28;19920;-84
2021/01/02 05:58:18;;;;;;;;;;;;;;;-3.73;43.47;102600.53;4989576;28;19986;-83
2021/01/02 06:00:46;;;;;;;;;;;;;;;-3.48;42.53;102604.19;5021562;28;19937;-83
2021/01/02 06:03:25;;;;;;;;;;;;;;;-3.38;42.47;102598.09;4990891;28;19921;-83
2021/01/02 06:05:57;;;;;;;;;;;;;;;-3.73;42.18;102611.34;5022040;28;20371;-82
2021/01/02 06:08:32;;;;;;;;;;;;;;;-3.86;42.24;102621.34;5020306;28;19914;-82
2021/01/02 06:11:18;;;;;;;;;;;;;;;-3.94;41.96;102629.16;4987935;28;19922;-84
2021/01/02 06:13:51;;;;;;;;;;;;;;;-4.01;42.62;102623.28;5005422;28;19920;-82
2021/01/02 06:16:29;;;;;;;;;;;;;;;-3.96;42.33;102637.38;4993633;28;19921;-82
2021/01/02 06:19:00;;;;;;;;;;;;;;;-3.91;42.73;102623.50;5025676;28;19921;-83
2021/01/02 06:21:26;;;;;;;;;;;;;;;-3.92;42.45;102614.50;5025549;28;19949;-83
2021/01/02 06:23:54;;;;;;;;;;;;;;;-3.60;42.26;102613.19;4993203;28;19942;-84
2021/01/02 06:26:23;;;;;;;;;;;;;;;-3.38;41.61;102619.78;4991709;28;19913;-85
2021/01/02 06:29:09;;;;;;;;;;;;;;;-3.39;41.99;102618.03;4990057;28;19922;-82
2021/01/02 06:31:36;;;;;;;;;;;;;;;-3.56;41.71;102633.69;4988600;28;19918;-83
2021/01/02 06:34:05;;;;;;;;;;;;;;;-3.61;42.29;102630.41;4989479;28;19914;-84
2021/01/02 06:36:37;;;;;;;;;;;;;;;-3.35;42.17;102627.66;4990177;28;19909;-82
2021/01/02 06:39:28;;;;;;;;;;;;;;;-3.17;41.59;102628.16;5020997;28;19922;-83
2021/01/02 06:42:28;;;;;;;;;;;;;;;-3.35;42.11;102633.09;4990909;28;19914;-83
2021/01/02 06:44:54;;;;;;;;;;;;;;;-3.14;42.02;102627.09;5000013;28;20298;-89
2021/01/02 06:47:23;;;;;;;;;;;;;;;-3.15;42.02;102647.91;4975156;28;20014;-85
2021/01/02 06:49:52;;;;;;;;;;;;;;;-3.02;41.86;102642.44;4977832;28;19980;-85
2021/01/02 06:52:31;;;;;;;;;;;;;;;-3.18;41.12;102643.56;4986923;28;19918;-83
2021/01/02 06:55:18;;;;;;;;;;;;;;;-3.24;41.48;102652.16;4988828;28;19923;-82
2021/01/02 06:57:46;;;;;;;;;;;;;;;-3.17;41.11;102656.16;5005474;28;20016;-84
2021/01/02 07:00:29;;;;;;;;;;;;;;;-3.08;39.70;102659.16;4995442;28;19965;-81
2021/01/02 07:02:56;;;;;;;;;;;;;;;-3.06;39.71;102651.78;5020463;28;20009;-81
2021/01/02 07:05:41;;;;;;;;;;;;;;;-3.02;39.48;102647.88;4987120;28;19918;-82
2021/01/02 07:08:27;;;;;;;;;;;;;;;-3.23;39.76;102662.00;5001293;28;19918;-84
2021/01/02 07:11:14;;;;;;;;;;;;;;;-3.27;40.36;102649.63;4988381;28;19946;-84
2021/01/02 07:13:43;;;;;;;;;;;;;;;-3.36;40.05;102667.44;4980452;28;19918;-83
2021/01/02 07:16:31;;;;;;;;;;;;;;;-3.74;40.39;102663.78;5004918;28;19914;-82
2021/01/02 07:18:58;;;;;;;;;;;;;;;-3.75;41.38;102672.88;4988950;28;19914;-83
2021/01/02 07:21:42;;;;;;;;;;;;;;;-3.76;41.18;102668.44;5018655;28;19914;-83
2021/01/02 07:24:24;;;;;;;;;;;;;;;-3.45;40.36;102668.97;4988780;28;20291;-84
2021/01/02 07:26:58;;;;;;;;;;;;;;;-3.46;39.45;102677.19;5020695;28;19914;-85
2021/01/02 07:29:25;;;;;;;;;;;;;;;-3.47;39.24;102670.94;5018919;28;19925;-83
2021/01/02 07:31:52;;;;;;;;;;;;;;;-3.61;40.12;102692.69;4986313;28;19925;-81
2021/01/02 07:34:22;;;;;;;;;;;;;;;-3.59;40.92;102693.44;4986692;28;19964;-83
2021/01/02 07:36:54;;;;;;;;;;;;;;;-3.59;41.39;102690.75;4986432;28;20294;-83
2021/01/02 07:39:20;;;;;;;;;;;;;;;-3.55;41.29;102697.69;5017811;28;19914;-83
2021/01/02 07:41:48;;;;;;;;;;;;;;;-3.53;41.80;102692.13;4987394;28;19914;-83
2021/01/02 07:44:14;;;;;;;;;;;;;;;-3.48;42.93;102696.28;4985269;28;19914;-82
2021/01/02 07:46:45;;;;;;;;;;;;;;;-3.56;43.39;102709.50;5021798;28;20298;-84
2021/01/02 07:49:17;;;;;;;;;;;;;;;-3.62;43.85;102699.09;4993646;28;19977;-83
2021/01/02 07:51:50;;;;;;;;;;;;;;;-3.72;44.32;102713.28;5022878;28;19917;-82
2021/01/02 07:54:36;;;;;;;;;;;;;;;-3.53;44.56;102709.28;4987844;28;19972;-83
2021/01/02 07:57:06;;;;;;;;;;;;;;;-3.57;44.54;102707.75;5003047;28;19914;-83
2021/01/02 07:59:39;;;;;;;;;;;;;;;-3.50;43.93;102709.03;4989421;28;19918;-82
2021/01/02 08:02:08;;;;;;;;;;;;;;;-3.50;44.64;102722.59;5002953;28;19921;-82
2021/01/02 08:04:38;;;;;;;;;;;;;;;-3.67;44.90;102731.03;4986068;28;19953;-83
2021/01/02 08:07:06;;;;;;;;;;;;;;;-3.57;43.76;102724.00;5019192;28;20453;-82
2021/01/02 08:09:34;;;;;;;;;;;;;;;-3.66;44.38;102740.88;4987217;28;19920;-83
2021/01/02 08:12:09;;;;;;;;;;;;;;;-3.68;44.59;102740.13;4987202;28;19918;-83
2021/01/02 08:14:42;;;;;;;;;;;;;;;-3.52;44.57;102739.94;4990779;28;19920;-82
2021/01/02 08:17:09;;;;;;;;;;;;;;;-3.59;44.61;102721.41;5021573;28;19914;-83
2021/01/02 08:19:42;;;;;;;;;;;;;;;-3.41;43.55;102728.34;5021203;28;20367;-83
2021/01/02 08:22:09;;;;;;;;;;;;;;;-3.72;44.36;102740.34;5005280;28;20318;-83
2021/01/02 08:24:36;;;;;;;;;;;;;;;-3.71;44.14;102733.97;4991266;28;19918;-83
2021/01/02 08:27:03;;;;;;;;;;;;;;;-3.59;44.23;102732.25;5023988;28;19918;-82
2021/01/02 08:29:34;;;;;;;;;;;;;;;-3.69;44.23;102735.69;5023220;28;19925;-82
2021/01/02 08:32:07;;;;;;;;;;;;;;;-3.69;43.44;102731.13;5021621;28;19925;-83
2021/01/02 08:34:34;;;;;;;;;;;;;;;-3.62;43.50;102734.28;5024185;28;19914;-83
2021/01/02 08:37:03;;;;;;;;;;;;;;;-3.72;44.35;102726.81;5022982;28;19942;-84
2021/01/02 08:39:30;;;;;;;;;;;;;;;-3.62;44.24;102731.59;4989713;28;19974;-82
2021/01/02 08:41:57;;;;;;;;;;;;;;;-3.56;43.62;102736.56;5022312;28;19937;-83
2021/01/02 08:44:26;;;;;;;;;;;;;;;-3.63;43.83;102732.56;5021953;28;19921;-83
2021/01/02 08:46:53;;;;;;;;;;;;;;;-3.62;43.74;102737.00;4990661;28;19914;-82
2021/01/02 08:49:29;;;;;;;;;;;;;;;-3.45;42.87;102739.38;5021612;28;19914;-83
2021/01/02 08:52:13;;;;;;;;;;;;;;;-3.58;43.35;102752.03;5022616;28;19918;-82
2021/01/02 08:54:40;;;;;;;;;;;;;;;-3.65;42.77;102753.44;5008053;28;19945;-86
2021/01/02 08:57:27;;;;;;;;;;;;;;;-3.62;42.54;102758.66;5006472;28;19914;-83
2021/01/02 09:00:07;;;;;;;;;;;;;;;-3.75;43.04;102747.81;5006685;28;19910;-81
2021/01/02 09:02:34;;;;;;;;;;;;;;;-3.64;42.30;102756.06;5023097;28;19918;-82
2021/01/02 09:05:03;;;;;;;;;;;;;;;-3.58;42.09;102749.34;5022746;28;19978;-83
2021/01/02 09:07:29;;;;;;;;;;;;;;;-3.68;42.27;102769.91;5022716;28;19925;-82
2021/01/02 09:10:15;;;;;;;;;;;;;;;-3.51;42.26;102766.91;4990602;28;19921;-83
2021/01/02 09:12:58;;;;;;;;;;;;;;;-3.50;40.67;102771.34;4991163;28;19917;-83
2021/01/02 09:15:39;;;;;;;;;;;;;;;-3.51;40.57;102769.59;5022709;28;19921;-82
2021/01/02 09:18:05;;;;;;;;;;;;;;;-3.48;40.57;102777.53;4989413;28;19989;-83
2021/01/02 09:20:31;;;;;;;;;;;;;;;-3.48;40.50;102772.13;4990613;28;19949;-83
2021/01/02 09:22:58;;;;;;;;;;;;;;;-3.48;41.03;102787.47;4989280;28;19929;-84
2021/01/02 09:25:30;;;;;;;;;;;;;;;-3.51;41.73;102783.16;4986491;28;19921;-82
2021/01/02 09:28:11;;;;;;;;;;;;;;;-3.32;39.77;102779.16;4984100;28;19937;-82
2021/01/02 09:30:39;;;;;;;;;;;;;;;-3.55;39.51;102797.00;5018615;28;19942;-82
2021/01/02 09:33:05;;;;;;;;;;;;;;;-3.60;39.45;102776.53;4989504;28;19945;-82
2021/01/02 09:35:33;;;;;;;;;;;;;;;-3.57;39.53;102795.28;4988455;28;19921;-83
2021/01/02 09:38:01;;;;;;;;;;;;;;;-3.62;40.52;102791.16;4987486;28;20363;-81
2021/01/02 09:40:32;;;;;;;;;;;;;;;-3.57;41.16;102786.28;5020886;28;19968;-81
2021/01/02 09:42:58;;;;;;;;;;;;;;;-3.50;41.20;102792.16;4987045;28;20359;-82
2021/01/02 09:45:25;;;;;;;;;;;;;;;-3.55;41.87;102794.28;4981413;28;19917;-83
2021/01/02 09:47:51;;;;;;;;;;;;;;;-3.51;41.80;102799.41;5002195;28;19922;-83
2021/01/02 09:50:28;;;;;;;;;;;;;;;-3.54;40.48;102798.75;4988720;28;19921;-82
2021/01/02 09:52:56;;;;;;;;;;;;;;;-3.61;41.03;102793.75;4993103;28;19906;-82
2021/01/02 09:55:22;;;;;;;;;;;;;;;-3.55;42.61;102784.34;5022501;28;20395;-82
2021/01/02 09:57:55;;;;;;;;;;;;;;;-3.62;42.35;102788.44;5023803;28;19945;-83
2021/01/02 10:00:22;;;;;;;;;;;;;;;-3.57;43.01;102783.56;5024886;28;19921;-83
2021/01/02 10:02:52;;;;;;;;;;;;;;;-3.63;42.97;102782.16;4993346;28;19921;-82
2021/01/02 10:05:21;;;;;;;;;;;;;;;-3.63;43.31;102800.25;4992876;28;19925;-83
2021/01/02 10:07:51;;;;;;;;;;;;;;;-3.56;43.58;102779.91;4993739;28;19914;-83
2021/01/02 10:10:20;;;;;;;;;;;;;;;-3.50;43.98;102784.03;5004059;28;19956;-82
2021/01/02 10:12:49;;;;;;;;;;;;;;;-3.34;43.14;102783.81;4991416;28;19921;-83
2021/01/02 10:15:17;;;;;;;;;;;;;;;-3.47;43.92;102775.66;4987985;28;20125;-83
2021/01/02 10:17:48;;;;;;;;;;;;;;;-3.54;44.06;102782.50;4988830;28;19925;-84
2021/01/02 10:20:17;;;;;;;;;;;;;;;-3.52;43.91;102792.25;4988824;28;19918;-82
2021/01/02 10:22:46;;;;;;;;;;;;;;;-3.52;43.75;102785.97;4987533;28;19914;-84
2021/01/02 10:25:14;;;;;;;;;;;;;;;-3.53;44.56;102801.34;4990899;28;19914;-82
2021/01/02 10:27:41;;;;;;;;;;;;;;;-3.50;43.42;102802.97;5022256;28;19921;-83
2021/01/02 10:30:12;;;;;;;;;;;;;;;-3.49;43.61;102800.19;5021062;28;19918;-83
2021/01/02 10:32:38;;;;;;;;;;;;;;;-3.61;43.24;102809.97;5021828;28;19986;-82
2021/01/02 10:35:08;;;;;;;;;;;;;;;-3.51;42.06;102810.22;4991271;28;19949;-83
2021/01/02 10:37:39;;;;;;;;;;;;;;;-3.63;42.79;102821.91;4988391;28;19918;-83
2021/01/02 10:40:06;;;;;;;;;;;;;;;-3.49;43.34;102812.84;4989363;28;20252;-84
2021/01/02 10:42:34;;;;;;;;;;;;;;;-3.44;43.12;102822.38;5022848;28;19914;-85
2021/01/02 10:45:03;;;;;;;;;;;;;;;-3.45;43.09;102822.50;5023012;28;19961;-84
2021/01/02 10:47:30;;;;;;;;;;;;;;;-3.36;43.20;102812.84;5004218;28;19958;-83
2021/01/02 10:49:57;;;;;;;;;;;;;;;-3.39;42.37;102821.19;5018851;28;20409;-83
2021/01/02 10:52:27;;;;;;;;;;;;;;;-3.36;42.51;102823.69;4988615;28;19921;-83
2021/01/02 10:54:55;;;;;;;;;;;;;;;-3.50;42.44;102832.78;5021783;28;19914;-83
2021/01/02 10:57:27;;;;;;;;;;;;;;;-3.55;42.06;102846.63;4987960;28;19914;-83
2021/01/02 10:59:55;;;;;;;;;;;;;;;-3.46;41.77;102827.03;4988420;28;19949;-83
2021/01/02 11:02:24;;;;;;;;;;;;;;;-3.51;42.08;102823.78;4986823;28;19914;-86
2021/01/02 11:04:53;;;;;;;;;;;;;;;-3.39;42.54;102823.91;5017566;28;19973;-84
2021/01/02 11:07:23;;;;;;;;;;;;;;;-3.48;43.06;102825.41;4988488;28;19928;-82
2021/01/02 11:09:50;;;;;;;;;;;;;;;-3.47;43.13;102821.72;4988863;28;19914;-83
2021/01/02 11:12:17;;;;;;;;;;;;;;;-3.56;43.04;102847.59;5020300;28;20275;-85
2021/01/02 11:14:43;;;;;;;;;;;;;;;-3.55;43.99;102822.25;5018862;28;19921;-82
2021/01/02 11:17:09;;;;;;;;;;;;;;;-3.74;42.91;102826.22;5016359;28;19914;-82
2021/01/02 11:19:37;;;;;;;;;;;;;;;-3.65;42.05;102822.00;4983689;28;20186;-83
2021/01/02 11:22:04;;;;;;;;;;;;;;;-3.60;42.30;102827.13;4988349;28;19928;-84
2021/01/02 11:24:32;;;;;;;;;;;;;;;-3.66;41.88;102822.13;5007073;28;19941;-84
2021/01/02 11:27:00;;;;;;;;;;;;;;;-3.81;42.38;102830.31;5006803;28;19918;-83
2021/01/02 11:29:28;;;;;;;;;;;;;;;-3.77;42.37;102821.00;4989707;28;20271;-84
2021/01/02 11:31:55;;;;;;;;;;;;;;;-3.65;42.27;102813.91;5005437;28;19914;-82
2021/01/02 11:34:24;;;;;;;;;;;;;;;-3.62;42.20;102819.09;5023968;28;19914;-82
2021/01/02 11:36:53;;;;;;;;;;;;;;;-3.68;42.57;102816.81;5024279;28;19917;-84
2021/01/02 11:39:20;;;;;;;;;;;;;;;-3.72;43.29;102823.41;4993912;28;19906;-82
2021/01/02 11:41:49;;;;;;;;;;;;;;;-3.65;43.72;102818.44;5026292;28;19920;-83
2021/01/02 11:44:17;;;;;;;;;;;;;;;-3.88;44.04;102823.56;5025944;28;20371;-82
2021/01/02 11:46:47;;;;;;;;;;;;;;;-3.79;44.54;102820.25;4995273;28;19961;-84
2021/01/02 11:49:15;;;;;;;;;;;;;;;-3.88;45.29;102821.75;5024390;28;19914;-82
2021/01/02 11:51:50;;;;;;;;;;;;;;;-4.03;45.94;102822.75;5023303;28;19985;-83
2021/01/02 11:54:16;;;;;;;;;;;;;;;-3.80;45.88;102826.63;5024102;28;19945;-83
2021/01/02 11:56:43;;;;;;;;;;;;;;;-3.87;46.15;102820.75;5022363;28;19898;-82
2021/01/02 11:59:12;;;;;;;;;;;;;;;-3.83;46.56;102816.00;4990171;28;19914;-83
2021/01/02 12:01:42;;;;;;;;;;;;;;;-3.72;46.48;102813.47;5023536;28;19914;-82
2021/01/02 12:04:09;;;;;;;;;;;;;;;-3.83;46.51;102820.53;4991116;28;19918;-83
2021/01/02 12:06:35;;;;;;;;;;;;;;;-3.88;47.06;102823.56;5022654;28;19918;-84
2021/01/02 12:09:03;;;;;;;;;;;;;;;-3.87;47.09;102830.75;5005299;28;19957;-81
2021/01/02 12:11:30;;;;;;;;;;;;;;;-3.86;47.26;102827.06;5022518;28;19913;-82
2021/01/02 12:13:57;;;;;;;;;;;;;;;-3.89;47.51;102825.41;4991191;28;19925;-82
2021/01/02 12:16:30;;;;;;;;;;;;;;;-3.86;46.98;102822.50;5015531;28;19962;-82
2021/01/02 12:18:56;;;;;;;;;;;;;;;-3.97;47.21;102818.78;4984910;28;19910;-82
2021/01/02 12:21:22;;;;;;;;;;;;;;;-4.10;47.38;102830.41;4987599;28;19964;-83
2021/01/02 12:23:49;;;;;;;;;;;;;;;-4.29;48.02;102836.16;4989811;28;19924;-82
2021/01/02 12:26:18;;;;;;;;;;;;;;;-4.29;47.95;102836.16;4990589;28;19910;-83
2021/01/02 12:28:56;;;;;;;;;;;;;;;-4.22;48.22;102837.50;4989934;28;19926;-83
2021/01/02 12:31:24;;;;;;;;;;;;;;;-4.14;47.64;102831.59;5004852;28;19925;-82
2021/01/02 12:33:53;;;;;;;;;;;;;;;-4.18;47.35;102827.34;5021123;28;19921;-85
2021/01/02 12:36:29;;;;;;;;;;;;;;;-4.26;47.67;102830.56;5020208;28;20375;-83
2021/01/02 12:38:55;;;;;;;;;;;;;;;-4.38;47.97;102837.66;5021115;28;19914;-82
2021/01/02 12:41:22;;;;;;;;;;;;;;;-4.41;48.28;102836.00;5019315;28;19910;-83
2021/01/02 12:43:49;;;;;;;;;;;;;;;-4.47;48.58;102835.53;4987309;28;19921;-83
2021/01/02 12:46:18;;;;;;;;;;;;;;;-4.39;48.09;102830.50;4989963;28;19914;-84
2021/01/02 12:48:47;;;;;;;;;;;;;;;-4.49;48.24;102837.47;4989230;28;20392;-82
2021/01/02 12:51:18;;;;;;;;;;;;;;;-4.60;48.87;102848.97;5019963;28;19914;-83
2021/01/02 12:53:48;;;;;;;;;;;;;;;-4.66;49.27;102844.81;4988930;28;19914;-83
2021/01/02 12:56:18;;;;;;;;;;;;;;;-4.70;49.14;102841.44;5020160;28;19922;-82